sensor_id;sensor_type;location;lat;lon;timestamp;temperature;humidity
6379;DHT22;3222;48.858;10.128;2023-08-30T00:01:13;14.20;99.90
6379;DHT22;3222;48.858;10.128;2023-08-30T00:03:39;14.20;99.90
6379;DHT22;3222;48.858;10.128;2023-08-30T00:06:06;14.20;99.90
6379;DHT22;3222;48.858;10.128;2023-08-30T00:08:32;14.20;99.90
6379;DHT22;3222;48.858;10.128;2023-08-30T00:10:58;14.10;99.90
6379;DHT22;3222;48.858;10.128;2023-08-30T00:13:28;14.10;99.90
6379;DHT22;3222;48.858;10.128;2023-08-30T00:15:54;14.10;99.90
6379;DHT22;3222;48.858;10.128;2023-08-30T00:18:20;14.10;99.90
6379;DHT22;3222;48.858;10.128;2023-08-30T00:20:46;14.20;99.90
6379;DHT22;3222;48.858;10.128;2023-08-30T00:23:12;14.30;99.90
6379;DHT22;3222;48.858;10.128;2023-08-30T00:25:37;14.20;99.90
6379;DHT22;3222;48.858;10.128;2023-08-30T00:28:03;14.20;99.90
6379;DHT22;3222;48.858;10.128;2023-08-30T00:30:29;14.20;99.90
6379;DHT22;3222;48.858;10.128;2023-08-30T00:32:54;14.20;99.90
6379;DHT22;3222;48.858;10.128;2023-08-30T00:35:20;14.20;99.90
6379;DHT22;3222;48.858;10.128;2023-08-30T00:37:46;14.20;99.90
6379;DHT22;3222;48.858;10.128;2023-08-30T00:40:11;14.20;99.90
6379;DHT22;3222;48.858;10.128;2023-08-30T00:42:37;14.20;99.90
6379;DHT22;3222;48.858;10.128;2023-08-30T00:45:03;14.20;99.90
6379;DHT22;3222;48.858;10.128;2023-08-30T00:47:31;14.20;99.90
6379;DHT22;3222;48.858;10.128;2023-08-30T00:49:57;14.20;99.90
6379;DHT22;3222;48.858;10.128;2023-08-30T00:52:23;14.20;99.90
6379;DHT22;3222;48.858;10.128;2023-08-30T00:54:49;14.10;99.90
6379;DHT22;3222;48.858;10.128;2023-08-30T00:57:16;14.10;99.90
6379;DHT22;3222;48.858;10.128;2023-08-30T00:59:41;14.10;99.90
6379;DHT22;3222;48.858;10.128;2023-08-30T01:02:07;14.20;99.90
6379;DHT22;3222;48.858;10.128;2023-08-30T01:04:33;14.30;99.90
6379;DHT22;3222;48.858;10.128;2023-08-30T01:06:59;14.20;99.90
6379;DHT22;3222;48.858;10.128;2023-08-30T01:09:26;14.30;99.90
6379;DHT22;3222;48.858;10.128;2023-08-30T01:12:09;14.40;99.90
6379;DHT22;3222;48.858;10.128;2023-08-30T01:14:53;14.30;99.90
6379;DHT22;3222;48.858;10.128;2023-08-30T01:17:23;14.40;99.90
6379;DHT22;3222;48.858;10.128;2023-08-30T01:20:01;14.30;99.90
6379;DHT22;3222;48.858;10.128;2023-08-30T01:27:42;14.30;99.90
6379;DHT22;3222;48.858;10.128;2023-08-30T01:30:09;14.30;99.90
6379;DHT22;3222;48.858;10.128;2023-08-30T01:32:37;14.40;99.90
6379;DHT22;3222;48.858;10.128;2023-08-30T01:35:04;14.30;99.90
6379;DHT22;3222;48.858;10.128;2023-08-30T01:37:31;14.30;99.90
6379;DHT22;3222;48.858;10.128;2023-08-30T01:39:59;14.20;99.90
6379;DHT22;3222;48.858;10.128;2023-08-30T01:42:25;14.10;99.90
6379;DHT22;3222;48.858;10.128;2023-08-30T01:44:54;14.10;99.90
6379;DHT22;3222;48.858;10.128;2023-08-30T01:47:26;14.00;99.90
6379;DHT22;3222;48.858;10.128;2023-08-30T01:49:54;14.00;99.90
6379;DHT22;3222;48.858;10.128;2023-08-30T01:52:20;14.00;99.90
6379;DHT22;3222;48.858;10.128;2023-08-30T01:54:47;14.00;99.90
6379;DHT22;3222;48.858;10.128;2023-08-30T01:57:13;13.90;99.90
6379;DHT22;3222;48.858;10.128;2023-08-30T01:59:39;13.90;99.90
6379;DHT22;3222;48.858;10.128;2023-08-30T02:02:04;13.90;99.90
6379;DHT22;3222;48.858;10.128;2023-08-30T02:04:30;13.90;99.90
6379;DHT22;3222;48.858;10.128;2023-08-30T02:07:03;13.90;99.90
6379;DHT22;3222;48.858;10.128;2023-08-30T02:12:20;13.80;99.90
6379;DHT22;3222;48.858;10.128;2023-08-30T02:14:49;13.80;99.90
6379;DHT22;3222;48.858;10.128;2023-08-30T02:17:15;13.80;99.90
6379;DHT22;3222;48.858;10.128;2023-08-30T02:19:45;13.80;99.90
6379;DHT22;3222;48.858;10.128;2023-08-30T02:22:11;13.80;99.90
6379;DHT22;3222;48.858;10.128;2023-08-30T02:24:37;13.80;99.90
6379;DHT22;3222;48.858;10.128;2023-08-30T02:27:03;13.80;99.90
6379;DHT22;3222;48.858;10.128;2023-08-30T02:29:29;13.70;99.90
6379;DHT22;3222;48.858;10.128;2023-08-30T02:31:54;13.70;99.90
6379;DHT22;3222;48.858;10.128;2023-08-30T02:34:21;13.70;99.90
6379;DHT22;3222;48.858;10.128;2023-08-30T02:36:46;13.80;99.90
6379;DHT22;3222;48.858;10.128;2023-08-30T02:39:14;13.80;99.90
6379;DHT22;3222;48.858;10.128;2023-08-30T02:41:41;13.80;99.90
6379;DHT22;3222;48.858;10.128;2023-08-30T02:44:13;13.80;99.90
6379;DHT22;3222;48.858;10.128;2023-08-30T02:46:41;13.70;99.90
6379;DHT22;3222;48.858;10.128;2023-08-30T02:49:07;13.70;99.90
6379;DHT22;3222;48.858;10.128;2023-08-30T02:51:34;13.70;99.90
6379;DHT22;3222;48.858;10.128;2023-08-30T02:54:00;13.70;99.90
6379;DHT22;3222;48.858;10.128;2023-08-30T02:56:26;13.70;99.90
6379;DHT22;3222;48.858;10.128;2023-08-30T02:58:51;13.70;99.90
6379;DHT22;3222;48.858;10.128;2023-08-30T03:01:17;13.70;99.90
6379;DHT22;3222;48.858;10.128;2023-08-30T03:03:43;13.70;99.90
6379;DHT22;3222;48.858;10.128;2023-08-30T03:06:08;13.70;99.90
6379;DHT22;3222;48.858;10.128;2023-08-30T03:08:34;13.70;99.90
6379;DHT22;3222;48.858;10.128;2023-08-30T03:11:10;13.70;99.90
6379;DHT22;3222;48.858;10.128;2023-08-30T03:13:40;13.70;99.90
6379;DHT22;3222;48.858;10.128;2023-08-30T03:16:13;13.60;99.90
6379;DHT22;3222;48.858;10.128;2023-08-30T03:18:39;13.60;99.90
6379;DHT22;3222;48.858;10.128;2023-08-30T03:21:05;13.60;99.90
6379;DHT22;3222;48.858;10.128;2023-08-30T03:23:33;13.60;99.90
6379;DHT22;3222;48.858;10.128;2023-08-30T03:25:59;13.60;99.90
6379;DHT22;3222;48.858;10.128;2023-08-30T03:28:25;13.60;99.90
6379;DHT22;3222;48.858;10.128;2023-08-30T03:30:52;13.60;99.90
6379;DHT22;3222;48.858;10.128;2023-08-30T03:33:18;13.70;99.90
6379;DHT22;3222;48.858;10.128;2023-08-30T03:35:44;13.60;99.90
6379;DHT22;3222;48.858;10.128;2023-08-30T03:38:09;13.60;99.90
6379;DHT22;3222;48.858;10.128;2023-08-30T03:40:35;13.60;99.90
6379;DHT22;3222;48.858;10.128;2023-08-30T03:43:01;13.60;99.90
6379;DHT22;3222;48.858;10.128;2023-08-30T03:45:26;13.60;99.90
6379;DHT22;3222;48.858;10.128;2023-08-30T03:47:52;13.60;99.90
6379;DHT22;3222;48.858;10.128;2023-08-30T03:50:18;13.60;99.90
6379;DHT22;3222;48.858;10.128;2023-08-30T03:52:43;13.60;99.90
6379;DHT22;3222;48.858;10.128;2023-08-30T03:55:09;13.60;99.90
6379;DHT22;3222;48.858;10.128;2023-08-30T03:57:35;13.60;99.90
6379;DHT22;3222;48.858;10.128;2023-08-30T04:00:02;13.60;99.90
6379;DHT22;3222;48.858;10.128;2023-08-30T04:02:39;13.60;99.90
6379;DHT22;3222;48.858;10.128;2023-08-30T04:05:05;13.60;99.90
6379;DHT22;3222;48.858;10.128;2023-08-30T04:07:35;13.60;99.90
6379;DHT22;3222;48.858;10.128;2023-08-30T04:10:01;13.50;99.90
6379;DHT22;3222;48.858;10.128;2023-08-30T04:12:31;13.50;99.90
6379;DHT22;3222;48.858;10.128;2023-08-30T04:14:57;13.50;99.90
6379;DHT22;3222;48.858;10.128;2023-08-30T04:17:23;13.50;99.90
6379;DHT22;3222;48.858;10.128;2023-08-30T04:19:51;13.50;99.90
6379;DHT22;3222;48.858;10.128;2023-08-30T04:22:18;13.50;99.90
6379;DHT22;3222;48.858;10.128;2023-08-30T04:24:46;13.40;99.90
6379;DHT22;3222;48.858;10.128;2023-08-30T04:27:12;13.40;99.90
6379;DHT22;3222;48.858;10.128;2023-08-30T04:29:38;13.40;99.90
6379;DHT22;3222;48.858;10.128;2023-08-30T04:32:04;13.40;99.90
6379;DHT22;3222;48.858;10.128;2023-08-30T04:34:30;13.40;99.90
6379;DHT22;3222;48.858;10.128;2023-08-30T04:36:56;13.40;99.90
6379;DHT22;3222;48.858;10.128;2023-08-30T04:39:22;13.40;99.90
6379;DHT22;3222;48.858;10.128;2023-08-30T04:41:48;13.40;99.90
6379;DHT22;3222;48.858;10.128;2023-08-30T04:44:14;13.30;99.90
6379;DHT22;3222;48.858;10.128;2023-08-30T04:46:39;13.30;99.90
6379;DHT22;3222;48.858;10.128;2023-08-30T04:49:05;13.30;99.90
6379;DHT22;3222;48.858;10.128;2023-08-30T04:51:32;13.30;99.90
6379;DHT22;3222;48.858;10.128;2023-08-30T04:53:57;13.30;99.90
6379;DHT22;3222;48.858;10.128;2023-08-30T04:56:23;13.30;99.90
6379;DHT22;3222;48.858;10.128;2023-08-30T04:58:49;13.30;99.90
6379;DHT22;3222;48.858;10.128;2023-08-30T05:01:16;13.30;99.90
6379;DHT22;3222;48.858;10.128;2023-08-30T05:03:45;13.30;99.90
6379;DHT22;3222;48.858;10.128;2023-08-30T05:06:13;13.30;99.90
6379;DHT22;3222;48.858;10.128;2023-08-30T05:08:42;13.30;99.90
6379;DHT22;3222;48.858;10.128;2023-08-30T05:11:07;13.20;99.90
6379;DHT22;3222;48.858;10.128;2023-08-30T05:13:35;13.20;99.90
6379;DHT22;3222;48.858;10.128;2023-08-30T05:16:01;13.20;99.90
6379;DHT22;3222;48.858;10.128;2023-08-30T05:18:27;13.30;99.90
6379;DHT22;3222;48.858;10.128;2023-08-30T05:20:53;13.20;99.90
6379;DHT22;3222;48.858;10.128;2023-08-30T05:23:18;13.20;99.90
6379;DHT22;3222;48.858;10.128;2023-08-30T05:25:44;13.30;99.90
6379;DHT22;3222;48.858;10.128;2023-08-30T05:28:10;13.30;99.90
6379;DHT22;3222;48.858;10.128;2023-08-30T05:30:35;13.30;99.90
6379;DHT22;3222;48.858;10.128;2023-08-30T05:33:12;13.30;99.90
6379;DHT22;3222;48.858;10.128;2023-08-30T05:36:16;13.30;99.90
6379;DHT22;3222;48.858;10.128;2023-08-30T05:39:01;13.30;99.90
6379;DHT22;3222;48.858;10.128;2023-08-30T05:41:33;13.30;99.90
6379;DHT22;3222;48.858;10.128;2023-08-30T05:43:59;13.30;99.90
6379;DHT22;3222;48.858;10.128;2023-08-30T05:46:24;13.30;99.90
6379;DHT22;3222;48.858;10.128;2023-08-30T05:48:50;13.30;99.90
6379;DHT22;3222;48.858;10.128;2023-08-30T05:51:16;13.30;99.90
6379;DHT22;3222;48.858;10.128;2023-08-30T05:53:41;13.30;99.90
6379;DHT22;3222;48.858;10.128;2023-08-30T05:56:07;13.30;99.90
6379;DHT22;3222;48.858;10.128;2023-08-30T05:58:33;13.40;99.90
6379;DHT22;3222;48.858;10.128;2023-08-30T06:00:59;13.40;99.90
6379;DHT22;3222;48.858;10.128;2023-08-30T06:03:28;13.40;99.90
6379;DHT22;3222;48.858;10.128;2023-08-30T06:05:54;13.40;99.90
6379;DHT22;3222;48.858;10.128;2023-08-30T06:08:19;13.40;99.90
6379;DHT22;3222;48.858;10.128;2023-08-30T06:10:46;13.40;99.90
6379;DHT22;3222;48.858;10.128;2023-08-30T06:13:11;13.40;99.90
6379;DHT22;3222;48.858;10.128;2023-08-30T06:15:37;13.40;99.90
6379;DHT22;3222;48.858;10.128;2023-08-30T06:18:04;13.40;99.90
6379;DHT22;3222;48.858;10.128;2023-08-30T06:20:30;13.50;99.90
6379;DHT22;3222;48.858;10.128;2023-08-30T06:22:58;13.50;99.90
6379;DHT22;3222;48.858;10.128;2023-08-30T06:25:24;13.70;99.90
6379;DHT22;3222;48.858;10.128;2023-08-30T06:27:57;13.70;99.90
6379;DHT22;3222;48.858;10.128;2023-08-30T06:30:25;13.70;99.90
6379;DHT22;3222;48.858;10.128;2023-08-30T06:32:51;13.80;99.90
6379;DHT22;3222;48.858;10.128;2023-08-30T06:35:16;13.80;99.90
6379;DHT22;3222;48.858;10.128;2023-08-30T06:37:42;13.80;99.90
6379;DHT22;3222;48.858;10.128;2023-08-30T06:40:08;13.70;99.90
6379;DHT22;3222;48.858;10.128;2023-08-30T06:42:34;13.70;99.90
6379;DHT22;3222;48.858;10.128;2023-08-30T06:45:00;13.80;99.90
6379;DHT22;3222;48.858;10.128;2023-08-30T06:47:26;13.90;99.90
6379;DHT22;3222;48.858;10.128;2023-08-30T06:49:51;13.90;99.90
6379;DHT22;3222;48.858;10.128;2023-08-30T06:52:17;13.90;99.90
6379;DHT22;3222;48.858;10.128;2023-08-30T06:54:42;13.90;99.90
6379;DHT22;3222;48.858;10.128;2023-08-30T06:57:08;13.90;99.90
6379;DHT22;3222;48.858;10.128;2023-08-30T06:59:34;13.80;99.90
6379;DHT22;3222;48.858;10.128;2023-08-30T07:02:00;13.90;99.90
6379;DHT22;3222;48.858;10.128;2023-08-30T07:04:25;14.00;99.90
6379;DHT22;3222;48.858;10.128;2023-08-30T07:06:51;13.90;99.90
6379;DHT22;3222;48.858;10.128;2023-08-30T07:09:17;13.90;99.90
6379;DHT22;3222;48.858;10.128;2023-08-30T07:11:43;13.90;99.90
6379;DHT22;3222;48.858;10.128;2023-08-30T07:14:12;13.80;99.90
6379;DHT22;3222;48.858;10.128;2023-08-30T07:16:40;13.90;99.90
6379;DHT22;3222;48.858;10.128;2023-08-30T07:19:05;13.90;99.90
6379;DHT22;3222;48.858;10.128;2023-08-30T07:21:31;14.00;99.90
6379;DHT22;3222;48.858;10.128;2023-08-30T07:23:58;14.10;99.90
6379;DHT22;3222;48.858;10.128;2023-08-30T07:26:24;14.20;99.90
6379;DHT22;3222;48.858;10.128;2023-08-30T07:28:49;14.20;99.90
6379;DHT22;3222;48.858;10.128;2023-08-30T07:31:15;14.20;99.90
6379;DHT22;3222;48.858;10.128;2023-08-30T07:33:44;14.30;99.90
6379;DHT22;3222;48.858;10.128;2023-08-30T07:36:09;14.30;99.90
6379;DHT22;3222;48.858;10.128;2023-08-30T07:38:35;14.30;99.90
6379;DHT22;3222;48.858;10.128;2023-08-30T07:41:01;14.20;99.90
6379;DHT22;3222;48.858;10.128;2023-08-30T07:43:27;14.20;99.90
6379;DHT22;3222;48.858;10.128;2023-08-30T07:45:53;14.30;99.90
6379;DHT22;3222;48.858;10.128;2023-08-30T07:48:19;14.30;99.90
6379;DHT22;3222;48.858;10.128;2023-08-30T07:50:44;14.20;99.90
6379;DHT22;3222;48.858;10.128;2023-08-30T07:53:10;14.30;99.90
6379;DHT22;3222;48.858;10.128;2023-08-30T07:55:36;14.30;99.90
6379;DHT22;3222;48.858;10.128;2023-08-30T07:58:02;14.30;99.90
6379;DHT22;3222;48.858;10.128;2023-08-30T08:00:29;14.30;99.90
6379;DHT22;3222;48.858;10.128;2023-08-30T08:02:54;14.40;99.90
6379;DHT22;3222;48.858;10.128;2023-08-30T08:05:20;14.30;99.90
6379;DHT22;3222;48.858;10.128;2023-08-30T08:07:49;14.30;99.90
6379;DHT22;3222;48.858;10.128;2023-08-30T08:10:15;14.40;99.90
6379;DHT22;3222;48.858;10.128;2023-08-30T08:12:41;14.40;99.90
6379;DHT22;3222;48.858;10.128;2023-08-30T08:15:07;14.50;99.90
6379;DHT22;3222;48.858;10.128;2023-08-30T08:17:32;14.50;99.90
6379;DHT22;3222;48.858;10.128;2023-08-30T08:19:58;14.60;99.90
6379;DHT22;3222;48.858;10.128;2023-08-30T08:22:23;14.70;99.90
6379;DHT22;3222;48.858;10.128;2023-08-30T08:24:49;14.60;99.90
6379;DHT22;3222;48.858;10.128;2023-08-30T08:27:17;14.60;99.90
6379;DHT22;3222;48.858;10.128;2023-08-30T08:29:42;14.60;99.90
6379;DHT22;3222;48.858;10.128;2023-08-30T08:32:08;14.50;99.90
6379;DHT22;3222;48.858;10.128;2023-08-30T08:34:34;14.50;99.90
6379;DHT22;3222;48.858;10.128;2023-08-30T08:36:59;14.60;99.90
6379;DHT22;3222;48.858;10.128;2023-08-30T08:39:25;14.60;99.90
6379;DHT22;3222;48.858;10.128;2023-08-30T08:41:51;14.60;99.90
6379;DHT22;3222;48.858;10.128;2023-08-30T08:44:18;14.60;99.90
6379;DHT22;3222;48.858;10.128;2023-08-30T08:46:46;14.50;99.90
6379;DHT22;3222;48.858;10.128;2023-08-30T08:49:15;14.60;99.90
6379;DHT22;3222;48.858;10.128;2023-08-30T08:51:43;14.60;99.90
6379;DHT22;3222;48.858;10.128;2023-08-30T08:54:09;14.60;99.90
6379;DHT22;3222;48.858;10.128;2023-08-30T08:56:36;14.60;99.90
6379;DHT22;3222;48.858;10.128;2023-08-30T08:59:03;14.60;99.90
6379;DHT22;3222;48.858;10.128;2023-08-30T09:01:29;14.70;99.90
6379;DHT22;3222;48.858;10.128;2023-08-30T09:03:55;14.60;99.90
6379;DHT22;3222;48.858;10.128;2023-08-30T09:06:21;14.80;99.90
6379;DHT22;3222;48.858;10.128;2023-08-30T09:08:48;14.80;99.90
6379;DHT22;3222;48.858;10.128;2023-08-30T09:11:14;14.80;99.90
6379;DHT22;3222;48.858;10.128;2023-08-30T09:13:41;14.80;99.90
6379;DHT22;3222;48.858;10.128;2023-08-30T09:16:14;14.80;99.90
6379;DHT22;3222;48.858;10.128;2023-08-30T09:18:43;14.80;99.90
6379;DHT22;3222;48.858;10.128;2023-08-30T09:21:09;14.70;99.90
6379;DHT22;3222;48.858;10.128;2023-08-30T09:23:36;14.70;99.90
6379;DHT22;3222;48.858;10.128;2023-08-30T09:26:02;14.70;99.90
6379;DHT22;3222;48.858;10.128;2023-08-30T09:28:29;14.70;99.90
6379;DHT22;3222;48.858;10.128;2023-08-30T09:30:57;14.70;99.90
6379;DHT22;3222;48.858;10.128;2023-08-30T09:33:29;14.70;99.90
6379;DHT22;3222;48.858;10.128;2023-08-30T09:35:56;14.70;99.90
6379;DHT22;3222;48.858;10.128;2023-08-30T09:38:21;14.70;99.90
6379;DHT22;3222;48.858;10.128;2023-08-30T09:40:47;14.80;99.90
6379;DHT22;3222;48.858;10.128;2023-08-30T09:43:13;14.90;99.90
6379;DHT22;3222;48.858;10.128;2023-08-30T09:45:39;15.00;99.90
6379;DHT22;3222;48.858;10.128;2023-08-30T09:48:05;15.00;99.90
6379;DHT22;3222;48.858;10.128;2023-08-30T09:50:35;15.10;99.90
6379;DHT22;3222;48.858;10.128;2023-08-30T09:53:07;15.10;99.90
6379;DHT22;3222;48.858;10.128;2023-08-30T09:55:35;15.10;99.90
6379;DHT22;3222;48.858;10.128;2023-08-30T09:58:04;15.00;99.90
6379;DHT22;3222;48.858;10.128;2023-08-30T10:00:32;15.00;99.90
6379;DHT22;3222;48.858;10.128;2023-08-30T10:02:59;15.00;99.90
6379;DHT22;3222;48.858;10.128;2023-08-30T10:05:26;15.00;99.90
6379;DHT22;3222;48.858;10.128;2023-08-30T10:07:53;15.00;99.90
6379;DHT22;3222;48.858;10.128;2023-08-30T10:10:26;15.10;99.90
6379;DHT22;3222;48.858;10.128;2023-08-30T10:12:53;15.20;99.90
6379;DHT22;3222;48.858;10.128;2023-08-30T10:15:21;15.20;99.90
6379;DHT22;3222;48.858;10.128;2023-08-30T10:17:52;15.30;99.90
6379;DHT22;3222;48.858;10.128;2023-08-30T10:20:19;15.30;99.90
6379;DHT22;3222;48.858;10.128;2023-08-30T10:22:47;15.30;99.90
6379;DHT22;3222;48.858;10.128;2023-08-30T10:25:19;15.30;99.90
6379;DHT22;3222;48.858;10.128;2023-08-30T10:27:47;15.40;99.90
6379;DHT22;3222;48.858;10.128;2023-08-30T10:30:15;15.40;99.90
6379;DHT22;3222;48.858;10.128;2023-08-30T10:32:42;15.50;99.90
6379;DHT22;3222;48.858;10.128;2023-08-30T10:35:12;15.50;99.90
6379;DHT22;3222;48.858;10.128;2023-08-30T10:37:42;15.60;99.90
6379;DHT22;3222;48.858;10.128;2023-08-30T10:40:08;15.60;99.90
6379;DHT22;3222;48.858;10.128;2023-08-30T10:42:34;15.70;99.90
6379;DHT22;3222;48.858;10.128;2023-08-30T10:45:07;15.80;99.90
6379;DHT22;3222;48.858;10.128;2023-08-30T10:47:35;15.80;99.90
6379;DHT22;3222;48.858;10.128;2023-08-30T10:50:11;15.80;99.90
6379;DHT22;3222;48.858;10.128;2023-08-30T10:52:37;15.70;99.90
6379;DHT22;3222;48.858;10.128;2023-08-30T10:57:32;15.90;99.90
6379;DHT22;3222;48.858;10.128;2023-08-30T11:00:06;15.80;99.90
6379;DHT22;3222;48.858;10.128;2023-08-30T11:02:37;15.90;99.90
6379;DHT22;3222;48.858;10.128;2023-08-30T11:05:06;15.90;99.90
6379;DHT22;3222;48.858;10.128;2023-08-30T11:07:33;15.90;99.90
6379;DHT22;3222;48.858;10.128;2023-08-30T11:09:58;16.00;99.90
6379;DHT22;3222;48.858;10.128;2023-08-30T11:12:24;16.00;99.90
6379;DHT22;3222;48.858;10.128;2023-08-30T11:14:55;16.00;99.90
6379;DHT22;3222;48.858;10.128;2023-08-30T11:17:21;15.90;99.90
6379;DHT22;3222;48.858;10.128;2023-08-30T11:19:50;15.90;99.90
6379;DHT22;3222;48.858;10.128;2023-08-30T11:22:17;15.90;99.90
6379;DHT22;3222;48.858;10.128;2023-08-30T11:24:43;16.00;99.90
6379;DHT22;3222;48.858;10.128;2023-08-30T11:27:11;16.00;99.90
6379;DHT22;3222;48.858;10.128;2023-08-30T11:29:39;16.00;99.90
6379;DHT22;3222;48.858;10.128;2023-08-30T11:32:07;16.00;99.90
6379;DHT22;3222;48.858;10.128;2023-08-30T11:34:33;16.00;99.90
6379;DHT22;3222;48.858;10.128;2023-08-30T11:36:59;16.00;99.90
6379;DHT22;3222;48.858;10.128;2023-08-30T11:39:28;16.10;99.90
6379;DHT22;3222;48.858;10.128;2023-08-30T11:41:54;16.10;99.90
6379;DHT22;3222;48.858;10.128;2023-08-30T11:44:23;16.10;99.90
6379;DHT22;3222;48.858;10.128;2023-08-30T11:46:49;16.10;99.90
6379;DHT22;3222;48.858;10.128;2023-08-30T11:49:18;16.10;99.90
6379;DHT22;3222;48.858;10.128;2023-08-30T11:51:43;16.20;99.90
6379;DHT22;3222;48.858;10.128;2023-08-30T11:54:09;16.20;99.90
6379;DHT22;3222;48.858;10.128;2023-08-30T11:56:36;16.30;99.90
6379;DHT22;3222;48.858;10.128;2023-08-30T11:59:02;16.30;99.90
6379;DHT22;3222;48.858;10.128;2023-08-30T12:01:29;16.40;99.90
6379;DHT22;3222;48.858;10.128;2023-08-30T12:03:55;16.40;99.90
6379;DHT22;3222;48.858;10.128;2023-08-30T12:06:23;16.40;99.90
6379;DHT22;3222;48.858;10.128;2023-08-30T12:08:48;16.40;99.90
6379;DHT22;3222;48.858;10.128;2023-08-30T12:11:22;16.40;99.90
6379;DHT22;3222;48.858;10.128;2023-08-30T12:13:48;16.50;99.90
6379;DHT22;3222;48.858;10.128;2023-08-30T12:16:17;16.60;99.90
6379;DHT22;3222;48.858;10.128;2023-08-30T12:18:43;16.60;99.90
6379;DHT22;3222;48.858;10.128;2023-08-30T12:21:09;16.60;99.90
6379;DHT22;3222;48.858;10.128;2023-08-30T12:23:34;16.50;99.90
6379;DHT22;3222;48.858;10.128;2023-08-30T12:28:31;16.70;99.90
6379;DHT22;3222;48.858;10.128;2023-08-30T12:30:57;16.70;99.90
6379;DHT22;3222;48.858;10.128;2023-08-30T12:33:23;16.80;99.90
6379;DHT22;3222;48.858;10.128;2023-08-30T12:35:54;16.80;99.90
6379;DHT22;3222;48.858;10.128;2023-08-30T12:38:20;16.80;99.90
6379;DHT22;3222;48.858;10.128;2023-08-30T12:40:47;16.80;99.90
6379;DHT22;3222;48.858;10.128;2023-08-30T12:43:13;16.90;99.90
6379;DHT22;3222;48.858;10.128;2023-08-30T12:45:40;17.00;99.90
6379;DHT22;3222;48.858;10.128;2023-08-30T12:48:07;16.90;99.90
6379;DHT22;3222;48.858;10.128;2023-08-30T12:50:34;17.00;99.90
6379;DHT22;3222;48.858;10.128;2023-08-30T12:53:01;16.90;99.90
6379;DHT22;3222;48.858;10.128;2023-08-30T12:55:27;16.90;99.90
6379;DHT22;3222;48.858;10.128;2023-08-30T12:57:52;16.90;99.90
6379;DHT22;3222;48.858;10.128;2023-08-30T13:00:18;16.90;99.90
6379;DHT22;3222;48.858;10.128;2023-08-30T13:02:44;17.00;99.90
6379;DHT22;3222;48.858;10.128;2023-08-30T13:05:10;17.00;99.90
6379;DHT22;3222;48.858;10.128;2023-08-30T13:07:37;17.00;99.90
6379;DHT22;3222;48.858;10.128;2023-08-30T13:10:03;17.00;99.90
6379;DHT22;3222;48.858;10.128;2023-08-30T13:12:29;17.00;99.90
6379;DHT22;3222;48.858;10.128;2023-08-30T13:14:54;17.10;99.90
6379;DHT22;3222;48.858;10.128;2023-08-30T13:17:20;17.10;99.90
6379;DHT22;3222;48.858;10.128;2023-08-30T13:19:46;17.10;99.90
6379;DHT22;3222;48.858;10.128;2023-08-30T13:22:11;17.10;99.90
6379;DHT22;3222;48.858;10.128;2023-08-30T13:24:37;17.10;99.90
6379;DHT22;3222;48.858;10.128;2023-08-30T13:27:03;17.20;99.90
6379;DHT22;3222;48.858;10.128;2023-08-30T13:29:29;17.20;99.90
6379;DHT22;3222;48.858;10.128;2023-08-30T13:31:55;17.30;99.90
6379;DHT22;3222;48.858;10.128;2023-08-30T13:34:21;17.30;99.90
6379;DHT22;3222;48.858;10.128;2023-08-30T13:36:47;17.30;99.90
6379;DHT22;3222;48.858;10.128;2023-08-30T13:39:12;17.40;99.90
6379;DHT22;3222;48.858;10.128;2023-08-30T13:41:38;17.40;99.90
6379;DHT22;3222;48.858;10.128;2023-08-30T13:44:04;17.40;99.90
6379;DHT22;3222;48.858;10.128;2023-08-30T13:46:30;17.40;99.90
6379;DHT22;3222;48.858;10.128;2023-08-30T13:48:56;17.30;99.90
6379;DHT22;3222;48.858;10.128;2023-08-30T13:51:23;17.40;99.90
6379;DHT22;3222;48.858;10.128;2023-08-30T13:53:50;17.40;99.90
6379;DHT22;3222;48.858;10.128;2023-08-30T13:56:16;17.40;99.90
6379;DHT22;3222;48.858;10.128;2023-08-30T13:58:42;17.50;99.90
6379;DHT22;3222;48.858;10.128;2023-08-30T14:01:08;17.60;99.90
6379;DHT22;3222;48.858;10.128;2023-08-30T14:03:33;17.60;99.90
6379;DHT22;3222;48.858;10.128;2023-08-30T14:05:59;17.60;99.90
6379;DHT22;3222;48.858;10.128;2023-08-30T14:08:25;17.60;99.90
6379;DHT22;3222;48.858;10.128;2023-08-30T14:10:50;17.60;99.90
6379;DHT22;3222;48.858;10.128;2023-08-30T14:13:16;17.70;99.90
6379;DHT22;3222;48.858;10.128;2023-08-30T14:15:42;17.80;99.90
6379;DHT22;3222;48.858;10.128;2023-08-30T14:18:08;17.80;99.90
6379;DHT22;3222;48.858;10.128;2023-08-30T14:20:34;17.70;99.90
6379;DHT22;3222;48.858;10.128;2023-08-30T14:22:59;17.80;99.90
6379;DHT22;3222;48.858;10.128;2023-08-30T14:25:25;17.60;99.90
6379;DHT22;3222;48.858;10.128;2023-08-30T14:27:51;17.60;99.90
6379;DHT22;3222;48.858;10.128;2023-08-30T14:30:17;17.60;99.90
6379;DHT22;3222;48.858;10.128;2023-08-30T14:32:42;17.60;99.90
6379;DHT22;3222;48.858;10.128;2023-08-30T14:35:08;17.70;99.90
6379;DHT22;3222;48.858;10.128;2023-08-30T14:37:34;17.50;99.90
6379;DHT22;3222;48.858;10.128;2023-08-30T14:40:05;17.50;99.90
6379;DHT22;3222;48.858;10.128;2023-08-30T14:42:31;17.40;99.90
6379;DHT22;3222;48.858;10.128;2023-08-30T14:44:57;17.50;99.90
6379;DHT22;3222;48.858;10.128;2023-08-30T14:47:23;17.50;99.90
6379;DHT22;3222;48.858;10.128;2023-08-30T14:49:49;17.50;99.90
6379;DHT22;3222;48.858;10.128;2023-08-30T14:52:15;17.40;99.90
6379;DHT22;3222;48.858;10.128;2023-08-30T14:54:41;17.40;99.90
6379;DHT22;3222;48.858;10.128;2023-08-30T14:57:07;17.30;99.90
6379;DHT22;3222;48.858;10.128;2023-08-30T14:59:33;17.30;99.90
6379;DHT22;3222;48.858;10.128;2023-08-30T15:01:58;17.30;99.90
6379;DHT22;3222;48.858;10.128;2023-08-30T15:04:24;17.40;99.90
6379;DHT22;3222;48.858;10.128;2023-08-30T15:06:50;17.40;99.90
6379;DHT22;3222;48.858;10.128;2023-08-30T15:09:17;17.50;99.90
6379;DHT22;3222;48.858;10.128;2023-08-30T15:11:43;17.40;99.90
6379;DHT22;3222;48.858;10.128;2023-08-30T15:14:09;17.40;99.90
6379;DHT22;3222;48.858;10.128;2023-08-30T15:16:35;17.30;99.90
6379;DHT22;3222;48.858;10.128;2023-08-30T15:19:01;17.20;99.90
6379;DHT22;3222;48.858;10.128;2023-08-30T15:21:27;17.20;99.90
6379;DHT22;3222;48.858;10.128;2023-08-30T15:23:52;17.20;99.90
6379;DHT22;3222;48.858;10.128;2023-08-30T15:26:18;17.20;99.90
6379;DHT22;3222;48.858;10.128;2023-08-30T15:28:47;17.20;99.90
6379;DHT22;3222;48.858;10.128;2023-08-30T15:31:13;17.10;99.90
6379;DHT22;3222;48.858;10.128;2023-08-30T15:33:39;17.10;99.90
6379;DHT22;3222;48.858;10.128;2023-08-30T15:36:05;17.00;99.90
6379;DHT22;3222;48.858;10.128;2023-08-30T15:38:30;17.00;99.90
6379;DHT22;3222;48.858;10.128;2023-08-30T15:40:56;16.90;99.90
6379;DHT22;3222;48.858;10.128;2023-08-30T15:43:22;17.00;99.90
6379;DHT22;3222;48.858;10.128;2023-08-30T15:45:48;17.00;99.90
6379;DHT22;3222;48.858;10.128;2023-08-30T15:48:15;17.10;99.90
6379;DHT22;3222;48.858;10.128;2023-08-30T15:50:42;17.20;99.90
6379;DHT22;3222;48.858;10.128;2023-08-30T15:53:08;17.20;99.90
6379;DHT22;3222;48.858;10.128;2023-08-30T15:55:35;17.20;99.90